Time;durP1;ratioP1;P1;durP2;ratioP2;P2;SDS_P1;SDS_P2;PMS_P1;PMS_P2;Temp;Humidity;BMP_temperature;BMP_pressure;BME280_temperature;BME280_humidity;BME280_pressure;Samples;Min_cycle;Max_cycle;Signal;HPM_P1;HPM_P2
2022/10/02 00:01:46;;;;;;;11.38;10.68;;;;;;;;;;4983370;28;20121;-65
2022/10/02 00:04:15;;;;;;;11.18;10.48;;;;;;;;;;4989116;28;20097;-65
2022/10/02 00:06:47;;;;;;;10.02;9.38;;;;;;;;;;4995244;28;20031;-66
2022/10/02 00:09:25;;;;;;;11.57;10.82;;;;;;;;;;4981291;28;20469;-65
2022/10/02 00:11:55;;;;;;;10.50;9.85;;;;;;;;;;4984141;28;20049;-66
2022/10/02 00:14:22;;;;;;;10.65;9.95;;;;;;;;;;4982453;28;20042;-66
2022/10/02 00:16:54;;;;;;;10.43;9.80;;;;;;;;;;4982411;28;20074;-66
2022/10/02 00:19:20;;;;;;;10.75;10.10;;;;;;;;;;4983807;28;20042;-66
2022/10/02 00:22:09;;;;;;;10.70;10.07;;;;;;;;;;4979976;28;20027;-66
2022/10/02 00:24:41;;;;;;;9.90;9.30;;;;;;;;;;4979845;28;20520;-66
2022/10/02 00:27:18;;;;;;;10.02;9.32;;;;;;;;;;4984239;28;20044;-66
2022/10/02 00:29:52;;;;;;;10.52;9.82;;;;;;;;;;4996238;28;20451;-66
2022/10/02 00:32:18;;;;;;;9.25;8.65;;;;;;;;;;4981276;28;20096;-64
2022/10/02 00:35:01;;;;;;;9.98;9.38;;;;;;;;;;4981188;28;20030;-65
2022/10/02 00:37:32;;;;;;;9.82;9.10;;;;;;;;;;4999316;28;20026;-65
2022/10/02 00:40:28;;;;;;;9.88;9.18;;;;;;;;;;4983800;28;20235;-65
2022/10/02 00:43:12;;;;;;;10.07;9.38;;;;;;;;;;4989404;28;20040;-65
2022/10/02 00:46:38;;;;;;;10.93;10.23;;;;;;;;;;4978039;28;20041;-65
2022/10/02 00:49:23;;;;;;;9.75;9.15;;;;;;;;;;4960925;28;20086;-66
2022/10/02 00:52:27;;;;;;;11.18;10.48;;;;;;;;;;4957326;28;20031;-65
2022/10/02 00:55:00;;;;;;;10.98;10.32;;;;;;;;;;4978639;28;20057;-65
2022/10/02 00:57:45;;;;;;;14.30;13.48;;;;;;;;;;4987689;28;20137;-65
2022/10/02 01:00:14;;;;;;;15.40;14.52;;;;;;;;;;4982285;28;20108;-65
2022/10/02 01:03:24;;;;;;;16.75;15.80;;;;;;;;;;4980472;28;20045;-65
2022/10/02 01:05:50;;;;;;;14.30;13.48;;;;;;;;;;4980160;28;20057;-66
2022/10/02 01:08:16;;;;;;;15.85;14.88;;;;;;;;;;4981209;28;20034;-65
2022/10/02 01:10:41;;;;;;;15.50;14.57;;;;;;;;;;4980594;28;20030;-65
2022/10/02 01:13:07;;;;;;;16.63;15.63;;;;;;;;;;4977904;28;20045;-65
2022/10/02 01:15:36;;;;;;;16.65;15.73;;;;;;;;;;4982493;28;20119;-65
2022/10/02 01:18:02;;;;;;;18.33;17.02;;;;;;;;;;4981673;28;20481;-65
2022/10/02 01:20:34;;;;;;;17.67;16.60;;;;;;;;;;4981638;28;20057;-65
2022/10/02 01:23:10;;;;;;;16.25;15.32;;;;;;;;;;4981750;28;20034;-65
2022/10/02 01:25:36;;;;;;;17.70;16.67;;;;;;;;;;4982068;28;20096;-65
2022/10/02 01:28:02;;;;;;;15.18;14.30;;;;;;;;;;4981025;28;20437;-65
2022/10/02 01:30:29;;;;;;;16.25;15.30;;;;;;;;;;4983001;28;20022;-64
2022/10/02 01:32:56;;;;;;;15.90;14.95;;;;;;;;;;4981111;28;20041;-65
2022/10/02 01:35:26;;;;;;;15.20;14.32;;;;;;;;;;4980002;28;20043;-65
2022/10/02 01:37:53;;;;;;;16.10;15.07;;;;;;;;;;4983272;28;20358;-65
2022/10/02 01:40:32;;;;;;;13.77;12.88;;;;;;;;;;4981820;28;20600;-65
2022/10/02 01:43:01;;;;;;;12.35;11.55;;;;;;;;;;4980086;28;20030;-64
2022/10/02 01:45:47;;;;;;;14.32;13.48;;;;;;;;;;4979146;28;20068;-65
2022/10/02 01:48:20;;;;;;;14.05;13.23;;;;;;;;;;4981407;28;20132;-65
2022/10/02 01:51:22;;;;;;;14.35;13.52;;;;;;;;;;4980114;28;20038;-65
2022/10/02 01:53:56;;;;;;;14.75;13.93;;;;;;;;;;4981095;28;20077;-65
2022/10/02 01:56:46;;;;;;;14.07;12.85;;;;;;;;;;4977974;28;20035;-64
2022/10/02 01:59:50;;;;;;;14.73;13.90;;;;;;;;;;4980755;28;20049;-65
2022/10/02 02:02:36;;;;;;;13.55;12.65;;;;;;;;;;4988389;28;20492;-65
2022/10/02 02:05:22;;;;;;;14.65;13.80;;;;;;;;;;4979223;28;20057;-65
2022/10/02 02:08:05;;;;;;;14.20;13.38;;;;;;;;;;4983518;28;20053;-64
2022/10/02 02:10:47;;;;;;;14.10;13.25;;;;;;;;;;4982538;28;20033;-64
2022/10/02 02:13:18;;;;;;;16.70;15.73;;;;;;;;;;4980543;28;20473;-65
2022/10/02 02:16:02;;;;;;;;;;;;;;;;;;4980766;28;20039;-65
2022/10/02 02:18:57;;;;;;;17.42;12.38;;;;;;;;;;4977883;28;19910;-65
2022/10/02 02:21:28;;;;;;;12.82;12.07;;;;;;;;;;4961943;28;20046;-64
2022/10/02 02:23:55;;;;;;;15.30;14.40;;;;;;;;;;4980645;28;20261;-64
2022/10/02 02:26:23;;;;;;;14.73;13.88;;;;;;;;;;4979739;28;20035;-65
2022/10/02 02:28:55;;;;;;;14.05;13.23;;;;;;;;;;4977918;28;20062;-65
2022/10/02 02:31:27;;;;;;;13.90;13.10;;;;;;;;;;4979593;28;20046;-65
2022/10/02 02:34:03;;;;;;;14.48;13.65;;;;;;;;;;4982180;28;20077;-65
2022/10/02 02:36:37;;;;;;;14.90;13.98;;;;;;;;;;4979688;28;20031;-65
2022/10/02 02:39:09;;;;;;;14.50;13.63;;;;;;;;;;4979631;28;20097;-65
2022/10/02 02:41:43;;;;;;;13.15;12.38;;;;;;;;;;4981128;28;20472;-66
2022/10/02 02:44:20;;;;;;;13.27;12.48;;;;;;;;;;4980989;28;20485;-65
2022/10/02 02:47:02;;;;;;;13.82;12.98;;;;;;;;;;4980696;28;20404;-65
2022/10/02 02:49:31;;;;;;;13.40;12.63;;;;;;;;;;4978694;28;20026;-65
2022/10/02 02:52:00;;;;;;;13.85;13.05;;;;;;;;;;4977162;28;20141;-64
2022/10/02 02:54:33;;;;;;;14.82;13.98;;;;;;;;;;4977748;28;20969;-65
2022/10/02 02:57:03;;;;;;;12.90;12.15;;;;;;;;;;4979386;28;20465;-65
2022/10/02 02:59:30;;;;;;;12.80;12.07;;;;;;;;;;4980086;28;20026;-65
2022/10/02 03:01:56;;;;;;;12.93;12.15;;;;;;;;;;4978208;28;20298;-65
2022/10/02 03:04:22;;;;;;;12.73;11.93;;;;;;;;;;4979584;28;20145;-65
2022/10/02 03:06:54;;;;;;;12.63;11.88;;;;;;;;;;4979490;28;20124;-65
2022/10/02 03:09:21;;;;;;;13.95;12.95;;;;;;;;;;4979183;28;20042;-64
2022/10/02 03:11:58;;;;;;;11.25;10.57;;;;;;;;;;4982649;28;20022;-66
2022/10/02 03:15:05;;;;;;;11.65;10.95;;;;;;;;;;4982162;28;20052;-67
2022/10/02 03:17:44;;;;;;;12.23;11.45;;;;;;;;;;4986264;28;20022;-66
2022/10/02 03:20:16;;;;;;;14.32;13.43;;;;;;;;;;4985870;28;20576;-67
2022/10/02 03:22:59;;;;;;;12.77;12.02;;;;;;;;;;4981862;28;20059;-67
2022/10/02 03:25:46;;;;;;;13.95;13.15;;;;;;;;;;4982191;28;20927;-67
2022/10/02 03:28:40;;;;;;;13.32;12.52;;;;;;;;;;4984446;28;20034;-67
2022/10/02 03:31:07;;;;;;;12.88;11.98;;;;;;;;;;4984236;28;20034;-67
2022/10/02 03:33:35;;;;;;;13.68;12.90;;;;;;;;;;4982129;28;20027;-67
2022/10/02 03:36:01;;;;;;;13.57;12.75;;;;;;;;;;4981016;28;20026;-67
2022/10/02 03:38:27;;;;;;;14.77;13.10;;;;;;;;;;4983083;28;20090;-67
2022/10/02 03:40:56;;;;;;;12.27;11.57;;;;;;;;;;4985021;28;20030;-68
2022/10/02 03:43:24;;;;;;;13.68;12.77;;;;;;;;;;4983225;28;20030;-67
2022/10/02 03:45:49;;;;;;;12.82;12.07;;;;;;;;;;4983942;28;20030;-66
2022/10/02 03:48:15;;;;;;;12.98;12.07;;;;;;;;;;4985533;28;20045;-66
2022/10/02 03:50:41;;;;;;;13.13;12.32;;;;;;;;;;4983035;28;20026;-66
2022/10/02 03:53:18;;;;;;;12.40;11.60;;;;;;;;;;4984227;28;20034;-66
2022/10/02 03:55:48;;;;;;;12.35;11.65;;;;;;;;;;4979747;28;20038;-66
2022/10/02 03:58:15;;;;;;;12.57;11.83;;;;;;;;;;4982500;28;20053;-67
2022/10/02 04:00:55;;;;;;;12.52;11.73;;;;;;;;;;4983800;28;20472;-66
2022/10/02 04:03:26;;;;;;;12.90;12.13;;;;;;;;;;4979566;28;20038;-66
2022/10/02 04:05:59;;;;;;;13.90;13.00;;;;;;;;;;4981579;28;20053;-66
2022/10/02 04:08:31;;;;;;;13.43;12.65;;;;;;;;;;4981974;28;20189;-66
2022/10/02 04:11:13;;;;;;;13.82;13.02;;;;;;;;;;4980379;28;20037;-66
2022/10/02 04:13:43;;;;;;;15.32;14.40;;;;;;;;;;4984708;28;20111;-66
2022/10/02 04:16:13;;;;;;;14.25;13.43;;;;;;;;;;4982815;28;20080;-66
2022/10/02 04:18:52;;;;;;;16.45;15.30;;;;;;;;;;4983087;28;20038;-66
2022/10/02 04:21:30;;;;;;;16.30;15.35;;;;;;;;;;4980573;28;20461;-66
2022/10/02 04:24:05;;;;;;;15.95;15.02;;;;;;;;;;4984447;28;20039;-66
2022/10/02 04:26:35;;;;;;;15.32;14.45;;;;;;;;;;4982765;28;20041;-66
2022/10/02 04:29:10;;;;;;;15.85;14.95;;;;;;;;;;4982113;28;20030;-66
2022/10/02 04:31:35;;;;;;;17.52;15.93;;;;;;;;;;4983122;28;20026;-66
2022/10/02 04:34:04;;;;;;;15.80;14.93;;;;;;;;;;4983704;28;20045;-66
2022/10/02 04:36:45;;;;;;;16.08;15.18;;;;;;;;;;4982836;28;20030;-66
2022/10/02 04:39:44;;;;;;;17.63;16.63;;;;;;;;;;4980394;28;20472;-67
2022/10/02 04:42:22;;;;;;;18.45;17.42;;;;;;;;;;4978854;28;20134;-66
2022/10/02 04:44:56;;;;;;;17.13;16.17;;;;;;;;;;4983235;28;20424;-66
2022/10/02 04:47:55;;;;;;;19.08;18.02;;;;;;;;;;4980117;28;20440;-66
2022/10/02 04:50:29;;;;;;;18.55;17.05;;;;;;;;;;4979095;28;20077;-67
2022/10/02 04:53:11;;;;;;;17.55;16.52;;;;;;;;;;4980468;28;20035;-66
2022/10/02 04:55:44;;;;;;;18.48;17.45;;;;;;;;;;4979757;28;20053;-66
2022/10/02 04:58:31;;;;;;;19.35;18.23;;;;;;;;;;4981442;28;20042;-66
2022/10/02 05:01:20;;;;;;;19.55;18.48;;;;;;;;;;4980227;28;20045;-66
2022/10/02 05:03:54;;;;;;;19.85;18.73;;;;;;;;;;4986197;28;20030;-66
2022/10/02 05:06:41;;;;;;;20.58;19.42;;;;;;;;;;4985962;28;20061;-71
2022/10/02 05:09:18;;;;;;;20.30;19.08;;;;;;;;;;4982872;28;20030;-77
2022/10/02 05:11:59;;;;;;;21.08;19.77;;;;;;;;;;4983221;28;20401;-65
2022/10/02 05:14:51;;;;;;;18.30;17.23;;;;;;;;;;4986350;28;20034;-65
2022/10/02 05:17:35;;;;;;;17.08;15.68;;;;;;;;;;4981621;28;20093;-64
2022/10/02 05:20:12;;;;;;;20.17;18.95;;;;;;;;;;4980465;28;20026;-64
2022/10/02 05:23:06;;;;;;;18.27;17.25;;;;;;;;;;4983840;28;20129;-64
2022/10/02 05:25:50;;;;;;;18.77;17.73;;;;;;;;;;4978820;28;20058;-64
2022/10/02 05:28:38;;;;;;;16.92;15.98;;;;;;;;;;4979377;28;20034;-63
2022/10/02 05:31:24;;;;;;;19.13;18.00;;;;;;;;;;4985151;28;20070;-64
2022/10/02 05:34:19;;;;;;;18.45;17.10;;;;;;;;;;4980927;28;20059;-64
2022/10/02 05:37:13;;;;;;;16.45;15.45;;;;;;;;;;4982222;28;20030;-64
2022/10/02 05:40:07;;;;;;;18.92;17.85;;;;;;;;;;4981537;28;20066;-63
2022/10/02 05:42:46;;;;;;;21.30;20.13;;;;;;;;;;4978533;28;20031;-63
2022/10/02 05:45:33;;;;;;;21.75;20.52;;;;;;;;;;4982040;28;20034;-66
2022/10/02 05:48:06;;;;;;;19.50;18.10;;;;;;;;;;4978255;28;20404;-67
2022/10/02 05:50:34;;;;;;;17.92;16.92;;;;;;;;;;4979643;28;20030;-67
2022/10/02 05:53:22;;;;;;;19.95;18.85;;;;;;;;;;4978410;28;20066;-67
2022/10/02 05:56:03;;;;;;;22.45;21.23;;;;;;;;;;4974135;28;20043;-67
2022/10/02 05:58:37;;;;;;;19.98;18.90;;;;;;;;;;4982414;28;20030;-69
2022/10/02 06:01:08;;;;;;;20.17;19.08;;;;;;;;;;4982035;28;20069;-68
2022/10/02 06:03:57;;;;;;;20.17;18.98;;;;;;;;;;4984258;28;20037;-67
2022/10/02 06:06:31;;;;;;;19.83;18.63;;;;;;;;;;4979974;28;20034;-68
2022/10/02 06:08:59;;;;;;;21.15;20.00;;;;;;;;;;4978873;28;20027;-69
2022/10/02 06:11:48;;;;;;;20.83;19.67;;;;;;;;;;4982710;28;20039;-69
2022/10/02 06:14:25;;;;;;;22.05;20.83;;;;;;;;;;4980326;28;20030;-69
2022/10/02 06:16:56;;;;;;;19.38;18.30;;;;;;;;;;4980249;28;20026;-69
2022/10/02 06:19:24;;;;;;;21.02;19.88;;;;;;;;;;4982833;28;20031;-70
2022/10/02 06:21:55;;;;;;;18.42;17.35;;;;;;;;;;4985301;28;20058;-72
2022/10/02 06:24:27;;;;;;;21.17;19.83;;;;;;;;;;4977646;28;20078;-70
2022/10/02 06:26:59;;;;;;;17.98;16.95;;;;;;;;;;4980376;28;20034;-69
2022/10/02 06:29:35;;;;;;;19.05;17.90;;;;;;;;;;4979901;28;20463;-70
2022/10/02 06:32:24;;;;;;;17.88;16.90;;;;;;;;;;4980980;28;20414;-70
2022/10/02 06:34:49;;;;;;;16.92;15.98;;;;;;;;;;4982773;28;20511;-70
2022/10/02 06:37:39;;;;;;;18.90;17.75;;;;;;;;;;4979790;28;20059;-72
2022/10/02 06:40:33;;;;;;;18.35;17.30;;;;;;;;;;4995824;28;20041;-71
2022/10/02 06:43:22;;;;;;;23.48;21.38;;;;;;;;;;4977701;28;20385;-72
2022/10/02 06:46:00;;;;;;;23.10;21.85;;;;;;;;;;4986194;28;20026;-73
2022/10/02 06:48:53;;;;;;;25.60;24.25;;;;;;;;;;4981537;28;20049;-75
2022/10/02 06:51:40;;;;;;;24.80;23.42;;;;;;;;;;4988623;28;20038;-73
2022/10/02 06:54:37;;;;;;;23.42;22.17;;;;;;;;;;4985970;28;20030;-66
2022/10/02 06:57:12;;;;;;;24.83;23.35;;;;;;;;;;4999178;28;20476;-66
2022/10/02 06:59:47;;;;;;;28.33;26.83;;;;;;;;;;4986474;28;20041;-66
2022/10/02 07:02:42;;;;;;;25.52;24.17;;;;;;;;;;4990158;28;20034;-66
2022/10/02 07:05:25;;;;;;;28.08;26.60;;;;;;;;;;4988311;28;20045;-67
2022/10/02 07:08:02;;;;;;;25.92;24.55;;;;;;;;;;4984145;28;20051;-65
2022/10/02 07:10:57;;;;;;;29.48;27.77;;;;;;;;;;4986047;28;20026;-66
2022/10/02 07:13:55;;;;;;;27.17;25.73;;;;;;;;;;4975760;28;20384;-67
2022/10/02 07:16:33;;;;;;;26.05;24.65;;;;;;;;;;4980938;28;20592;-66
2022/10/02 07:19:10;;;;;;;27.05;25.63;;;;;;;;;;4979779;28;20026;-67
2022/10/02 07:22:26;;;;;;;27.90;25.80;;;;;;;;;;4982559;28;20360;-67
2022/10/02 07:25:00;;;;;;;27.33;25.88;;;;;;;;;;4943501;29;20052;-68
2022/10/02 07:27:30;;;;;;;28.15;26.55;;;;;;;;;;4944209;29;20520;-67
2022/10/02 07:30:07;;;;;;;27.27;25.77;;;;;;;;;;4968827;28;20101;-68
2022/10/02 07:32:50;;;;;;;26.88;25.45;;;;;;;;;;4980514;28;20281;-67
2022/10/02 07:35:40;;;;;;;27.35;25.90;;;;;;;;;;4981465;28;20097;-68
2022/10/02 07:38:41;;;;;;;26.75;25.30;;;;;;;;;;4999875;28;20038;-67
2022/10/02 07:41:18;;;;;;;25.77;24.25;;;;;;;;;;4986965;28;20034;-68
2022/10/02 07:43:55;;;;;;;26.75;25.35;;;;;;;;;;4982963;28;20038;-68
2022/10/02 07:46:39;;;;;;;25.13;23.80;;;;;;;;;;4983071;28;20126;-68
2022/10/02 07:49:16;;;;;;;24.60;23.25;;;;;;;;;;4983244;28;20047;-68
2022/10/02 07:52:04;;;;;;;24.98;23.65;;;;;;;;;;4982098;28;20551;-67
2022/10/02 07:55:00;;;;;;;25.55;24.20;;;;;;;;;;4978646;28;20464;-67
2022/10/02 07:57:53;;;;;;;23.85;22.60;;;;;;;;;;4985659;28;20038;-67
2022/10/02 08:00:23;;;;;;;22.95;21.73;;;;;;;;;;4983404;28;20038;-68
2022/10/02 08:03:00;;;;;;;25.92;24.52;;;;;;;;;;4982047;28;20062;-68
2022/10/02 08:05:34;;;;;;;24.50;23.17;;;;;;;;;;4980305;28;20034;-67
2022/10/02 08:08:05;;;;;;;22.60;21.40;;;;;;;;;;4983645;28;20092;-68
2022/10/02 08:10:40;;;;;;;21.27;20.10;;;;;;;;;;4982384;28;20365;-68
2022/10/02 08:13:21;;;;;;;20.75;19.38;;;;;;;;;;4980043;28;20039;-68
2022/10/02 08:15:51;;;;;;;19.17;18.13;;;;;;;;;;4981587;28;20022;-67
2022/10/02 08:18:29;;;;;;;17.83;16.87;;;;;;;;;;4983326;28;20038;-67
2022/10/02 08:20:55;;;;;;;19.73;18.65;;;;;;;;;;4998679;28;20325;-67
2022/10/02 08:23:23;;;;;;;19.88;18.80;;;;;;;;;;4983064;28;20069;-67
2022/10/02 08:25:56;;;;;;;17.75;16.75;;;;;;;;;;4978920;28;20598;-68
2022/10/02 08:28:22;;;;;;;17.67;16.67;;;;;;;;;;4984516;28;20031;-68
2022/10/02 08:30:47;;;;;;;17.35;16.27;;;;;;;;;;4982370;28;20035;-69
2022/10/02 08:33:16;;;;;;;14.73;13.73;;;;;;;;;;4982383;28;20057;-69
2022/10/02 08:36:29;;;;;;;14.38;13.48;;;;;;;;;;4982652;28;20046;-69
2022/10/02 08:39:12;;;;;;;12.82;12.02;;;;;;;;;;4957052;28;20050;-68
2022/10/02 08:42:16;;;;;;;12.48;11.43;;;;;;;;;;4981167;28;20396;-69
2022/10/02 08:44:54;;;;;;;11.35;10.68;;;;;;;;;;4981160;28;20508;-69
2022/10/02 08:47:57;;;;;;;10.82;10.18;;;;;;;;;;4980436;28;20049;-69
2022/10/02 08:50:40;;;;;;;10.30;9.70;;;;;;;;;;4982468;28;20031;-68
2022/10/02 08:53:33;;;;;;;10.30;9.70;;;;;;;;;;4984606;28;20045;-69
2022/10/02 08:56:27;;;;;;;10.43;9.82;;;;;;;;;;4981963;28;20471;-67
2022/10/02 08:59:06;;;;;;;10.20;9.60;;;;;;;;;;4976643;28;20054;-68
2022/10/02 09:01:43;;;;;;;11.15;10.45;;;;;;;;;;4982084;28;20600;-68
2022/10/02 09:05:10;;;;;;;11.63;10.90;;;;;;;;;;4980044;28;20046;-68
2022/10/02 09:07:46;;;;;;;10.15;9.55;;;;;;;;;;4999707;28;20452;-69
2022/10/02 09:10:36;;;;;;;11.57;10.88;;;;;;;;;;4981398;28;20042;-68
2022/10/02 09:13:01;;;;;;;11.87;11.07;;;;;;;;;;4984080;28;20034;-68
2022/10/02 09:15:53;;;;;;;11.70;11.00;;;;;;;;;;4980734;28;20030;-68
2022/10/02 09:18:59;;;;;;;12.52;11.73;;;;;;;;;;4983837;28;20069;-68
2022/10/02 09:21:51;;;;;;;12.57;11.85;;;;;;;;;;4978950;28;20035;-68
2022/10/02 09:24:42;;;;;;;11.32;10.63;;;;;;;;;;4995883;28;20035;-68
2022/10/02 09:27:17;;;;;;;;;;;;;;;;;;4984406;28;20038;-68
2022/10/02 09:30:03;;;;;;;10.77;10.10;;;;;;;;;;4980420;28;20347;-68
2022/10/02 09:32:47;;;;;;;10.93;10.27;;;;;;;;;;4980455;28;20036;-68
2022/10/02 09:35:33;;;;;;;11.65;10.95;;;;;;;;;;4979790;28;20037;-68
2022/10/02 09:38:28;;;;;;;12.27;11.57;;;;;;;;;;4980052;28;20129;-68
2022/10/02 09:41:17;;;;;;;14.93;14.07;;;;;;;;;;4984666;28;20037;-69
2022/10/02 09:44:16;;;;;;;14.88;14.02;;;;;;;;;;4979548;28;20560;-68
2022/10/02 09:47:00;;;;;;;15.13;14.25;;;;;;;;;;4980452;28;20455;-67
2022/10/02 09:49:46;;;;;;;18.48;17.35;;;;;;;;;;4977594;28;20037;-67
2022/10/02 09:52:33;;;;;;;17.00;16.05;;;;;;;;;;4980216;28;20389;-67
2022/10/02 09:55:35;;;;;;;16.35;15.45;;;;;;;;;;4983803;28;20039;-67
2022/10/02 09:58:13;;;;;;;17.60;16.60;;;;;;;;;;4983318;28;20068;-69
2022/10/02 10:01:07;;;;;;;15.40;14.52;;;;;;;;;;4980798;28;20471;-68
2022/10/02 10:03:41;;;;;;;16.55;15.60;;;;;;;;;;4980270;28;20030;-68
2022/10/02 10:06:40;;;;;;;16.35;15.35;;;;;;;;;;4980290;28;20038;-68
2022/10/02 10:09:12;;;;;;;13.73;12.93;;;;;;;;;;4978676;28;20062;-67
2022/10/02 10:11:56;;;;;;;17.13;16.13;;;;;;;;;;4986419;28;20038;-66
2022/10/02 10:14:40;;;;;;;16.65;15.73;;;;;;;;;;4983154;28;20045;-67
2022/10/02 10:17:38;;;;;;;13.98;13.18;;;;;;;;;;4980207;28;20031;-67
2022/10/02 10:20:29;;;;;;;13.68;12.88;;;;;;;;;;4979573;28;20476;-67
2022/10/02 10:23:19;;;;;;;13.25;12.45;;;;;;;;;;4981968;28;20484;-67
2022/10/02 10:25:58;;;;;;;10.82;10.15;;;;;;;;;;4980715;28;20089;-67
2022/10/02 10:28:24;;;;;;;14.52;13.73;;;;;;;;;;4976351;28;20107;-67
2022/10/02 10:31:21;;;;;;;13.50;12.70;;;;;;;;;;4979860;28;20125;-67
2022/10/02 10:34:06;;;;;;;12.27;11.57;;;;;;;;;;4972842;28;20482;-67
2022/10/02 10:40:25;;;;;;;13.77;12.98;;;;;;;;;;4979155;28;20373;-68
2022/10/02 10:43:15;;;;;;;13.40;12.60;;;;;;;;;;4986923;28;20369;-68
2022/10/02 10:46:06;;;;;;;12.70;11.95;;;;;;;;;;4978026;28;20420;-68
2022/10/02 10:49:20;;;;;;;13.07;12.27;;;;;;;;;;4980562;28;20034;-67
2022/10/02 10:52:17;;;;;;;10.90;10.25;;;;;;;;;;4979205;28;20515;-67
2022/10/02 10:54:52;;;;;;;13.43;12.65;;;;;;;;;;4978353;28;20042;-66
2022/10/02 10:57:39;;;;;;;14.13;13.32;;;;;;;;;;4980628;28;20650;-66
2022/10/02 11:00:15;;;;;;;12.80;12.05;;;;;;;;;;4978961;28;20085;-66
2022/10/02 11:02:54;;;;;;;15.32;14.45;;;;;;;;;;4980047;28;20038;-67
2022/10/02 11:05:44;;;;;;;16.20;15.30;;;;;;;;;;4979677;28;20038;-67
2022/10/02 11:08:35;;;;;;;15.65;14.75;;;;;;;;;;4979170;28;20043;-66
2022/10/02 11:11:06;;;;;;;15.40;14.52;;;;;;;;;;4980681;28;20472;-65
2022/10/02 11:14:06;;;;;;;16.23;15.32;;;;;;;;;;4982054;28;20129;-68
2022/10/02 11:17:09;;;;;;;14.07;13.27;;;;;;;;;;4982382;28;20058;-68
2022/10/02 11:19:43;;;;;;;12.93;12.18;;;;;;;;;;4978499;28;20480;-68
2022/10/02 11:22:19;;;;;;;13.48;12.68;;;;;;;;;;4980958;28;20049;-68
2022/10/02 11:25:08;;;;;;;13.93;13.13;;;;;;;;;;4978019;28;20507;-67
2022/10/02 11:28:02;;;;;;;13.05;12.30;;;;;;;;;;4979003;28;20121;-67
2022/10/02 11:31:05;;;;;;;12.57;11.85;;;;;;;;;;4979040;28;20116;-66
2022/10/02 11:33:49;;;;;;;12.65;11.90;;;;;;;;;;4983372;28;20030;-65
2022/10/02 11:36:40;;;;;;;12.02;11.32;;;;;;;;;;4985251;28;20039;-69
2022/10/02 11:39:11;;;;;;;11.18;10.48;;;;;;;;;;4981633;28;20124;-67
2022/10/02 11:41:45;;;;;;;10.05;9.45;;;;;;;;;;4979923;28;20456;-67
2022/10/02 11:44:48;;;;;;;11.02;10.35;;;;;;;;;;4982900;28;20062;-67
2022/10/02 11:47:20;;;;;;;11.52;10.82;;;;;;;;;;4982256;28;20030;-67
2022/10/02 11:50:09;;;;;;;10.68;10.05;;;;;;;;;;4981485;28;20329;-67
2022/10/02 11:52:57;;;;;;;10.88;10.23;;;;;;;;;;4983746;28;20057;-67
2022/10/02 11:55:52;;;;;;;11.98;11.27;;;;;;;;;;4982495;28;20537;-65
2022/10/02 11:58:53;;;;;;;11.52;10.82;;;;;;;;;;4981765;28;20042;-67
2022/10/02 12:01:31;;;;;;;10.38;9.77;;;;;;;;;;4982566;28;20039;-68
2022/10/02 12:04:28;;;;;;;11.85;11.15;;;;;;;;;;4982833;28;20043;-68
2022/10/02 12:07:18;;;;;;;10.85;10.20;;;;;;;;;;4984659;28;20049;-68
2022/10/02 12:10:11;;;;;;;10.77;10.13;;;;;;;;;;4984677;28;20401;-68
2022/10/02 12:13:09;;;;;;;12.30;11.60;;;;;;;;;;4973698;28;20026;-67
2022/10/02 12:16:02;;;;;;;10.30;9.70;;;;;;;;;;4984386;28;20035;-69
2022/10/02 12:19:05;;;;;;;10.38;9.75;;;;;;;;;;4981263;28;20034;-69
2022/10/02 12:27:46;;;;;;;10.52;9.82;;;;;;;;;;4986510;28;20039;-68
2022/10/02 12:30:16;;;;;;;10.93;10.23;;;;;;;;;;4981315;28;20521;-69
2022/10/02 12:33:07;;;;;;;10.48;9.88;;;;;;;;;;4980734;28;20054;-70
2022/10/02 12:35:59;;;;;;;9.98;9.38;;;;;;;;;;4981187;28;20056;-66
2022/10/02 12:38:27;;;;;;;11.07;10.27;;;;;;;;;;4978847;28;21461;-67
2022/10/02 12:41:08;;;;;;;11.13;10.35;;;;;;;;;;4979357;28;20039;-69
2022/10/02 12:43:57;;;;;;;10.68;10.07;;;;;;;;;;4979636;28;20088;-70
2022/10/02 12:47:00;;;;;;;10.40;9.80;;;;;;;;;;4981823;28;20038;-70
2022/10/02 12:49:44;;;;;;;11.25;10.55;;;;;;;;;;4983648;28;20026;-69
2022/10/02 12:52:42;;;;;;;11.77;11.07;;;;;;;;;;4982287;28;20026;-67
2022/10/02 12:55:07;;;;;;;11.13;10.43;;;;;;;;;;4992606;28;20043;-70
2022/10/02 12:58:07;;;;;;;11.52;10.75;;;;;;;;;;4979689;28;20089;-69
2022/10/02 13:01:03;;;;;;;12.52;11.82;;;;;;;;;;4979919;28;20034;-69
2022/10/02 13:03:45;;;;;;;13.45;12.65;;;;;;;;;;4974963;28;20046;-71
2022/10/02 13:06:30;;;;;;;12.90;12.18;;;;;;;;;;4982453;28;20042;-70
2022/10/02 13:09:33;;;;;;;15.75;14.82;;;;;;;;;;4995874;28;20049;-70
2022/10/02 13:12:18;;;;;;;14.57;13.77;;;;;;;;;;4983230;28;20039;-68
2022/10/02 13:14:49;;;;;;;13.23;12.43;;;;;;;;;;4982241;28;20088;-67
2022/10/02 13:17:28;;;;;;;15.38;14.48;;;;;;;;;;4981956;28;20034;-67
2022/10/02 13:20:19;;;;;;;14.48;13.68;;;;;;;;;;4981743;28;20038;-67
2022/10/02 13:22:57;;;;;;;14.13;13.32;;;;;;;;;;4980195;28;20065;-68
2022/10/02 13:25:33;;;;;;;13.25;12.40;;;;;;;;;;4979967;28;20045;-68
2022/10/02 13:28:27;;;;;;;11.38;10.68;;;;;;;;;;4983746;28;20141;-68
2022/10/02 13:31:15;;;;;;;10.93;10.25;;;;;;;;;;4982620;28;20058;-68
2022/10/02 13:34:14;;;;;;;10.63;10.02;;;;;;;;;;4980305;28;20053;-67
2022/10/02 13:36:48;;;;;;;10.13;9.52;;;;;;;;;;4982053;28;20023;-67
2022/10/02 13:39:26;;;;;;;10.00;9.40;;;;;;;;;;4986147;28;20046;-67
2022/10/02 13:42:20;;;;;;;11.85;11.15;;;;;;;;;;4981963;28;20117;-67
2022/10/02 13:44:57;;;;;;;10.93;10.23;;;;;;;;;;4992529;28;20031;-65
2022/10/02 13:47:25;;;;;;;11.88;11.18;;;;;;;;;;4982378;28;20096;-66
2022/10/02 13:50:09;;;;;;;10.50;9.90;;;;;;;;;;4983373;28;20420;-66
2022/10/02 13:53:19;;;;;;;11.50;10.25;;;;;;;;;;4980459;28;20034;-65
2022/10/02 13:55:52;;;;;;;10.15;9.55;;;;;;;;;;4983198;28;20041;-65
2022/10/02 13:58:29;;;;;;;10.35;9.75;;;;;;;;;;4983933;28;20453;-67
2022/10/02 14:01:03;;;;;;;10.68;10.07;;;;;;;;;;4983853;28;20365;-67
2022/10/02 14:04:12;;;;;;;10.68;10.05;;;;;;;;;;4980283;28;20045;-67
2022/10/02 14:06:49;;;;;;;10.32;9.73;;;;;;;;;;4980138;28;20205;-68
2022/10/02 14:09:14;;;;;;;11.20;10.50;;;;;;;;;;4995962;28;20038;-68
2022/10/02 14:12:14;;;;;;;10.30;9.70;;;;;;;;;;4983204;28;20111;-68
2022/10/02 14:15:00;;;;;;;10.65;10.05;;;;;;;;;;4982585;28;20031;-68
2022/10/02 14:18:03;;;;;;;11.00;10.30;;;;;;;;;;4956530;28;20613;-68
2022/10/02 14:20:54;;;;;;;10.10;9.50;;;;;;;;;;4981459;28;20041;-67
2022/10/02 14:23:37;;;;;;;;;;;;;;;;;;4983102;28;20109;-69
2022/10/02 14:26:15;;;;;;;9.60;9.00;;;;;;;;;;4980030;28;20221;-69
2022/10/02 14:29:09;;;;;;;10.48;9.85;;;;;;;;;;4983515;28;20089;-69
2022/10/02 14:31:38;;;;;;;11.07;10.23;;;;;;;;;;4970944;28;21372;-68
2022/10/02 14:34:21;;;;;;;10.98;10.30;;;;;;;;;;4979919;28;20034;-69
2022/10/02 14:37:17;;;;;;;12.32;11.63;;;;;;;;;;4982679;28;20149;-69
2022/10/02 14:39:44;;;;;;;9.95;9.35;;;;;;;;;;4986135;28;20357;-69
2022/10/02 14:42:17;;;;;;;11.05;10.35;;;;;;;;;;4984373;28;20543;-67
2022/10/02 14:45:04;;;;;;;10.55;9.95;;;;;;;;;;4983865;28;20030;-74
2022/10/02 14:47:48;;;;;;;10.18;9.57;;;;;;;;;;4980698;28;20476;-71
2022/10/02 14:50:38;;;;;;;11.38;10.68;;;;;;;;;;4981710;28;20129;-73
2022/10/02 14:53:39;;;;;;;11.27;10.57;;;;;;;;;;4979859;28;20031;-73
2022/10/02 14:56:33;;;;;;;10.77;10.07;;;;;;;;;;4964069;28;20054;-70
2022/10/02 14:59:14;;;;;;;14.02;12.95;;;;;;;;;;4996026;28;20081;-70
2022/10/02 15:01:55;;;;;;;10.45;9.85;;;;;;;;;;4987292;28;20038;-74
2022/10/02 15:04:29;;;;;;;10.68;10.07;;;;;;;;;;4981346;28;20050;-70
2022/10/02 15:07:12;;;;;;;11.00;10.32;;;;;;;;;;4991168;28;20125;-71
2022/10/02 15:09:47;;;;;;;10.68;10.05;;;;;;;;;;4984650;28;20816;-73
2022/10/02 15:12:24;;;;;;;10.55;9.95;;;;;;;;;;4986279;28;20030;-69
2022/10/02 15:15:14;;;;;;;10.65;10.02;;;;;;;;;;4998637;28;20141;-69
2022/10/02 15:17:59;;;;;;;11.00;10.32;;;;;;;;;;4985114;28;20511;-74
2022/10/02 15:20:58;;;;;;;10.55;9.85;;;;;;;;;;4988785;28;20046;-75
2022/10/02 15:23:33;;;;;;;10.63;9.98;;;;;;;;;;4985943;28;20034;-74
2022/10/02 15:26:28;;;;;;;9.63;9.02;;;;;;;;;;4982533;28;20464;-75
2022/10/02 15:29:24;;;;;;;10.23;9.50;;;;;;;;;;4985753;28;20034;-74
2022/10/02 15:32:07;;;;;;;10.13;9.52;;;;;;;;;;4991142;28;20109;-70
2022/10/02 15:34:52;;;;;;;10.98;10.27;;;;;;;;;;4983520;28;20026;-73
2022/10/02 15:37:33;;;;;;;10.65;10.02;;;;;;;;;;4982418;28;20513;-73
2022/10/02 15:40:11;;;;;;;;;;;;;;;;;;4991918;28;20053;-72
2022/10/02 15:42:56;;;;;;;11.77;11.07;;;;;;;;;;4987626;28;20310;-73
2022/10/02 15:45:52;;;;;;;11.82;11.13;;;;;;;;;;4983765;28;20117;-73
2022/10/02 15:48:47;;;;;;;12.45;11.73;;;;;;;;;;4987694;28;20086;-72
2022/10/02 15:51:31;;;;;;;11.75;11.05;;;;;;;;;;4987406;28;20094;-72
2022/10/02 15:54:23;;;;;;;13.52;12.73;;;;;;;;;;4984046;28;20034;-76
2022/10/02 15:57:08;;;;;;;13.07;12.27;;;;;;;;;;4979963;28;20050;-71